createdAt,value
2023-01-09T00:00:09.926Z,24.81
2023-01-09T00:02:40.575Z,24.81
2023-01-09T00:05:11.434Z,24.86
2023-01-09T00:07:38.115Z,24.81
2023-01-09T00:10:05.525Z,24.85
2023-01-09T00:12:33.356Z,24.84
2023-01-09T00:14:59.926Z,24.84
2023-01-09T00:17:26.485Z,24.80
2023-01-09T00:19:53.013Z,24.80
2023-01-09T00:22:19.907Z,24.78
2023-01-09T00:24:46.512Z,24.84
2023-01-09T00:27:14.246Z,24.81
2023-01-09T00:29:49.419Z,24.81
2023-01-09T00:32:16.229Z,24.82
2023-01-09T00:34:45.554Z,24.76
2023-01-09T00:37:12.778Z,24.82
2023-01-09T00:39:39.588Z,24.76
2023-01-09T00:42:06.858Z,24.79
2023-01-09T00:44:36.717Z,24.79
2023-01-09T00:47:07.747Z,24.80
2023-01-09T00:49:35.226Z,24.78
2023-01-09T00:52:02.317Z,24.79
2023-01-09T00:54:28.933Z,24.76
2023-01-09T00:56:58.676Z,24.66
2023-01-09T00:59:25.300Z,24.77
2023-01-09T01:01:52.009Z,24.79
2023-01-09T01:04:37.488Z,24.78
2023-01-09T01:07:22.361Z,24.73
2023-01-09T01:09:48.913Z,24.77
2023-01-09T01:12:15.488Z,24.75
2023-01-09T01:14:42.055Z,24.76
2023-01-09T01:17:08.642Z,24.75
2023-01-09T01:19:35.370Z,24.69
2023-01-09T01:22:02.126Z,24.75
2023-01-09T01:24:28.799Z,24.73
2023-01-09T01:26:55.341Z,24.46
2023-01-09T01:29:21.903Z,24.64
2023-01-09T01:31:48.474Z,24.69
2023-01-09T01:34:15.029Z,24.64
2023-01-09T01:36:41.596Z,24.72
2023-01-09T01:39:08.109Z,24.74
2023-01-09T01:41:34.709Z,24.73
2023-01-09T01:44:06.776Z,24.74
2023-01-09T01:46:33.914Z,24.72
2023-01-09T01:49:07.374Z,24.74
2023-01-09T01:51:37.406Z,24.71
2023-01-09T01:54:06.587Z,24.65
2023-01-09T01:56:37.064Z,24.68
2023-01-09T01:59:11.194Z,24.69
2023-01-09T02:01:40.891Z,24.60
2023-01-09T02:04:07.631Z,24.64
2023-01-09T02:06:34.424Z,24.66
2023-01-09T02:09:04.852Z,24.62
2023-01-09T02:11:31.366Z,24.67
2023-01-09T02:14:00.800Z,24.70
2023-01-09T02:16:42.945Z,24.70
2023-01-09T02:19:34.310Z,24.71
2023-01-09T02:22:15.910Z,24.71
2023-01-09T02:25:11.199Z,24.48
2023-01-09T02:28:05.156Z,24.69
2023-01-09T02:30:44.960Z,24.70
2023-01-09T02:33:37.823Z,24.68
2023-01-09T02:36:28.967Z,24.63
2023-01-09T02:39:27.299Z,24.54
2023-01-09T02:42:19.042Z,24.64
2023-01-09T02:44:45.576Z,24.56
2023-01-09T02:47:14.906Z,24.61
2023-01-09T02:49:55.291Z,24.48
2023-01-09T02:52:33.094Z,24.60
2023-01-09T02:55:22.520Z,24.47
2023-01-09T02:58:07.295Z,24.61
2023-01-09T03:00:51.865Z,24.58
2023-01-09T03:03:21.568Z,24.58
2023-01-09T03:05:57.203Z,24.57
2023-01-09T03:08:26.293Z,24.54
2023-01-09T03:11:02.714Z,24.58
2023-01-09T03:13:31.488Z,24.55
2023-01-09T03:15:58.120Z,24.51
2023-01-09T03:18:25.204Z,24.53
2023-01-09T03:20:51.894Z,24.53
2023-01-09T03:23:18.461Z,24.54
2023-01-09T03:25:45.033Z,24.30
2023-01-09T03:28:28.890Z,24.58
2023-01-09T03:30:55.468Z,24.55
2023-01-09T03:33:22.071Z,24.56
2023-01-09T03:35:48.650Z,24.18
2023-01-09T03:38:15.221Z,24.55
2023-01-09T03:40:43.360Z,24.54
2023-01-09T03:43:09.924Z,24.36
2023-01-09T03:45:36.588Z,24.56
2023-01-09T03:48:03.203Z,24.57
2023-01-09T03:50:29.750Z,24.38
2023-01-09T03:52:56.302Z,24.56
2023-01-09T03:55:22.852Z,24.35
2023-01-09T03:57:49.364Z,24.54
2023-01-09T04:00:16.060Z,24.54
2023-01-09T04:02:43.185Z,24.56
2023-01-09T04:05:09.939Z,24.49
2023-01-09T04:07:36.733Z,24.18
2023-01-09T04:10:03.401Z,24.52
2023-01-09T04:12:29.983Z,24.52
2023-01-09T04:14:56.573Z,24.51
2023-01-09T04:17:23.140Z,24.53
2023-01-09T04:19:50.724Z,24.52
2023-01-09T04:22:17.237Z,24.25
2023-01-09T04:24:43.803Z,24.47
2023-01-09T04:27:12.153Z,24.55
2023-01-09T04:29:38.723Z,23.96
2023-01-09T04:32:05.458Z,24.54
2023-01-09T04:34:32.900Z,24.33
2023-01-09T04:36:59.431Z,24.48
2023-01-09T04:39:25.923Z,24.55
2023-01-09T04:41:55.438Z,24.47
2023-01-09T04:44:22.999Z,24.53
2023-01-09T04:46:49.647Z,24.53
2023-01-09T04:49:16.303Z,24.50
2023-01-09T04:51:42.822Z,24.50
2023-01-09T04:54:09.455Z,24.31
2023-01-09T04:56:36.465Z,24.48
2023-01-09T04:59:03.681Z,24.41
2023-01-09T05:01:30.481Z,24.50
2023-01-09T05:03:57.153Z,24.52
2023-01-09T05:06:23.733Z,24.42
2023-01-09T05:08:50.279Z,24.53
2023-01-09T05:11:16.856Z,24.21
2023-01-09T05:13:43.407Z,24.51
2023-01-09T05:16:09.968Z,24.38
2023-01-09T05:18:36.634Z,24.46
2023-01-09T05:21:03.251Z,24.50
2023-01-09T05:23:29.796Z,24.45
2023-01-09T05:25:56.360Z,24.40
2023-01-09T05:28:22.985Z,24.53
2023-01-09T05:30:49.592Z,24.51
2023-01-09T05:33:16.161Z,24.50
2023-01-09T05:35:42.700Z,24.52
2023-01-09T05:38:09.271Z,24.50
2023-01-09T05:40:40.420Z,24.45
2023-01-09T05:43:07.316Z,24.55
2023-01-09T05:45:34.026Z,24.55
2023-01-09T05:48:00.652Z,24.53
2023-01-09T05:50:27.216Z,24.51
2023-01-09T05:52:53.808Z,24.50
2023-01-09T05:55:20.435Z,24.50
2023-01-09T05:57:46.966Z,24.24
2023-01-09T06:00:14.309Z,24.52
2023-01-09T06:02:40.951Z,24.53
2023-01-09T06:05:08.346Z,24.53
2023-01-09T06:07:39.174Z,24.53
2023-01-09T06:10:07.895Z,24.50
2023-01-09T06:12:34.435Z,24.58
2023-01-09T06:15:01.016Z,24.54
2023-01-09T06:17:27.669Z,24.55
2023-01-09T06:19:54.301Z,24.60
2023-01-09T06:22:20.907Z,24.53
2023-01-09T06:24:47.528Z,24.36
2023-01-09T06:27:14.132Z,24.59
2023-01-09T06:29:40.682Z,24.54
2023-01-09T06:32:07.192Z,24.52
2023-01-09T06:34:33.720Z,24.57
2023-01-09T06:37:00.238Z,24.51
2023-01-09T06:39:26.762Z,24.59
2023-01-09T06:41:53.304Z,24.52
2023-01-09T06:44:19.831Z,24.62
2023-01-09T06:46:46.328Z,24.61
2023-01-09T06:49:12.863Z,24.57
2023-01-09T06:51:39.427Z,24.60
2023-01-09T06:54:05.983Z,24.59
2023-01-09T06:56:32.520Z,24.57
2023-01-09T06:58:59.145Z,24.57
2023-01-09T07:01:25.809Z,24.59
2023-01-09T07:03:52.464Z,24.58
2023-01-09T07:06:20.073Z,24.58
2023-01-09T07:08:47.910Z,24.57
2023-01-09T07:11:14.628Z,24.61
2023-01-09T07:13:41.223Z,24.62
2023-01-09T07:16:08.076Z,24.49
2023-01-09T07:18:34.744Z,24.60
2023-01-09T07:21:01.275Z,24.56
2023-01-09T07:23:28.029Z,24.58
2023-01-09T07:25:54.576Z,24.48
2023-01-09T07:28:21.179Z,24.60
2023-01-09T07:30:47.772Z,24.61
2023-01-09T07:33:14.313Z,24.50
2023-01-09T07:35:40.905Z,24.54
2023-01-09T07:38:07.438Z,24.52
2023-01-09T07:40:34.227Z,24.50
2023-01-09T07:43:00.759Z,24.55
2023-01-09T07:45:27.293Z,24.54
2023-01-09T07:47:53.919Z,24.54
2023-01-09T07:50:20.611Z,24.55
2023-01-09T07:52:47.116Z,24.59
2023-01-09T07:55:15.584Z,24.56
2023-01-09T07:57:43.273Z,24.51
2023-01-09T08:00:11.015Z,24.49
2023-01-09T08:02:40.561Z,24.55
2023-01-09T08:05:08.934Z,24.56
2023-01-09T08:07:35.512Z,24.48
2023-01-09T08:10:02.172Z,24.51
2023-01-09T08:12:28.785Z,24.37
2023-01-09T08:14:55.373Z,24.46
2023-01-09T08:17:21.918Z,24.47
2023-01-09T08:19:48.445Z,24.51
2023-01-09T08:22:15.049Z,24.48
2023-01-09T08:24:41.627Z,24.52
2023-01-09T08:27:08.282Z,24.30
2023-01-09T08:29:34.871Z,24.54
2023-01-09T08:32:01.487Z,24.50
2023-01-09T08:34:28.224Z,24.48
2023-01-09T08:36:54.899Z,24.53
2023-01-09T08:39:21.547Z,24.52
2023-01-09T08:42:06.485Z,24.50
2023-01-09T08:44:51.877Z,24.50
2023-01-09T08:47:20.075Z,24.38
2023-01-09T08:49:46.637Z,24.45
2023-01-09T08:52:13.753Z,24.50
2023-01-09T08:54:40.362Z,24.51
2023-01-09T08:57:07.431Z,24.50
2023-01-09T08:59:34.048Z,24.41
2023-01-09T09:02:00.825Z,24.24
2023-01-09T09:04:27.476Z,24.46
2023-01-09T09:06:54.068Z,24.43
2023-01-09T09:09:20.686Z,24.45
2023-01-09T09:11:47.305Z,24.20
2023-01-09T09:14:39.819Z,24.43
2023-01-09T09:17:06.421Z,24.48
2023-01-09T09:19:32.993Z,24.54
2023-01-09T09:21:59.625Z,24.44
2023-01-09T09:24:26.316Z,24.44
2023-01-09T09:26:52.920Z,24.53
2023-01-09T09:29:19.495Z,24.22
2023-01-09T09:31:46.072Z,23.71
2023-01-09T09:34:13.231Z,23.54
2023-01-09T09:36:39.921Z,23.40
2023-01-09T09:39:07.481Z,23.68
2023-01-09T09:42:15.244Z,23.62
2023-01-09T09:45:13.099Z,23.76
2023-01-09T09:47:51.860Z,23.92
2023-01-09T09:50:24.332Z,23.99
2023-01-09T09:52:59.730Z,24.06
2023-01-09T09:55:32.922Z,24.09
2023-01-09T09:58:01.059Z,24.11
2023-01-09T10:00:28.019Z,24.14
2023-01-09T10:03:06.091Z,24.15
2023-01-09T10:05:37.897Z,24.08
2023-01-09T10:08:25.728Z,24.20
2023-01-09T10:10:55.324Z,24.18
2023-01-09T10:13:42.532Z,24.20
2023-01-09T10:16:36.204Z,24.22
2023-01-09T10:19:40.317Z,24.22
2023-01-09T10:22:13.796Z,24.25
2023-01-09T10:24:52.968Z,24.19
2023-01-09T10:27:53.977Z,24.17
2023-01-09T10:30:42.313Z,24.30
2023-01-09T10:33:11.834Z,24.31
2023-01-09T10:35:48.013Z,24.31
2023-01-09T10:38:18.014Z,24.30
2023-01-09T10:40:51.518Z,24.21
2023-01-09T10:43:38.482Z,24.36
2023-01-09T10:46:07.881Z,24.28
2023-01-09T10:48:36.586Z,24.34
2023-01-09T10:51:05.200Z,24.34
2023-01-09T10:53:38.572Z,24.28
2023-01-09T10:56:26.115Z,24.35
2023-01-09T10:58:53.648Z,24.24
2023-01-09T11:01:31.335Z,24.33
2023-01-09T11:04:02.292Z,24.31
2023-01-09T11:06:43.633Z,24.24
2023-01-09T11:09:10.286Z,24.35
2023-01-09T11:11:38.910Z,24.37
2023-01-09T11:14:17.532Z,24.41
2023-01-09T11:17:05.449Z,24.45
2023-01-09T11:19:33.314Z,24.41
2023-01-09T11:22:08.662Z,24.41
2023-01-09T11:24:35.222Z,24.31
2023-01-09T11:27:23.149Z,24.38
2023-01-09T11:30:15.657Z,24.30
2023-01-09T11:32:42.676Z,24.26
2023-01-09T11:35:19.916Z,24.24
2023-01-09T11:37:46.513Z,24.27
2023-01-09T11:40:20.452Z,24.25
2023-01-09T11:43:32.969Z,24.35
2023-01-09T11:46:23.585Z,24.34
2023-01-09T11:48:54.957Z,24.33
2023-01-09T11:51:29.335Z,24.39
2023-01-09T11:54:17.614Z,24.44
2023-01-09T11:56:44.202Z,24.43
2023-01-09T11:59:15.079Z,24.44
2023-01-09T12:02:10.295Z,24.50
2023-01-09T12:04:55.718Z,24.57
2023-01-09T12:07:36.611Z,24.59
2023-01-09T12:10:34.325Z,24.62
2023-01-09T12:13:23.115Z,24.62
2023-01-09T12:16:15.942Z,24.63
2023-01-09T12:19:02.207Z,24.61
2023-01-09T12:21:35.998Z,24.57
2023-01-09T12:24:05.294Z,24.57
2023-01-09T12:26:32.645Z,24.58
2023-01-09T12:29:29.981Z,24.61
2023-01-09T12:32:41.535Z,24.62
2023-01-09T12:35:22.976Z,24.46
2023-01-09T12:38:16.892Z,24.18
2023-01-09T12:40:56.980Z,24.16
2023-01-09T12:43:54.423Z,24.14
2023-01-09T12:46:24.638Z,24.14
2023-01-09T12:49:19.241Z,24.18
2023-01-09T12:52:07.614Z,24.14
2023-01-09T12:54:51.778Z,24.17
2023-01-09T12:57:24.797Z,24.17
2023-01-09T12:59:52.767Z,24.23
2023-01-09T13:02:35.032Z,24.09
2023-01-09T13:05:06.846Z,24.08
2023-01-09T13:07:41.957Z,24.03
2023-01-09T13:10:27.856Z,24.07
2023-01-09T13:12:54.480Z,23.94
2023-01-09T13:15:33.030Z,24.00
2023-01-09T13:18:25.859Z,24.03
2023-01-09T13:20:53.887Z,24.07
2023-01-09T13:23:26.587Z,24.11
2023-01-09T13:25:54.619Z,24.04
2023-01-09T13:28:23.447Z,24.18
2023-01-09T13:31:26.384Z,24.28
2023-01-09T13:33:57.676Z,24.34
2023-01-09T13:36:25.651Z,24.30
2023-01-09T13:38:52.242Z,24.40
2023-01-09T13:41:37.499Z,24.37
2023-01-09T13:44:06.155Z,24.42
2023-01-09T13:46:43.538Z,24.48
2023-01-09T13:49:29.015Z,24.49
2023-01-09T13:51:58.305Z,24.36
2023-01-09T13:54:46.893Z,24.52
2023-01-09T13:57:19.402Z,24.52
2023-01-09T13:59:49.328Z,24.53
2023-01-09T14:02:34.603Z,24.54
2023-01-09T14:05:24.292Z,24.57
2023-01-09T14:08:31.657Z,24.54
2023-01-09T14:11:02.130Z,24.53
2023-01-09T14:13:30.897Z,24.41
2023-01-09T14:16:24.503Z,24.53
2023-01-09T14:19:00.568Z,24.52
2023-01-09T14:21:27.302Z,24.23
2023-01-09T14:24:04.439Z,24.51
2023-01-09T14:26:46.912Z,24.55
2023-01-09T14:29:40.254Z,24.50
2023-01-09T14:32:33.711Z,24.49
2023-01-09T14:35:03.249Z,24.59
2023-01-09T14:37:30.502Z,24.49
2023-01-09T14:39:57.246Z,24.47
2023-01-09T14:42:25.547Z,24.46
2023-01-09T14:45:03.448Z,24.49
2023-01-09T14:47:39.436Z,24.44
2023-01-09T14:50:17.160Z,24.36
2023-01-09T14:53:12.419Z,24.45
2023-01-09T14:55:42.480Z,24.41
2023-01-09T14:58:13.046Z,24.39
2023-01-09T15:00:48.315Z,24.33
2023-01-09T15:03:16.162Z,24.41
2023-01-09T15:05:44.146Z,24.36
2023-01-09T15:08:13.785Z,24.41
2023-01-09T15:10:40.611Z,24.38
2023-01-09T15:13:07.831Z,24.38
2023-01-09T15:15:36.082Z,24.32
2023-01-09T15:18:07.776Z,24.39
2023-01-09T15:20:34.808Z,24.40
2023-01-09T15:23:03.643Z,24.41
2023-01-09T15:25:38.785Z,24.41
2023-01-09T15:28:28.805Z,24.45
2023-01-09T15:31:07.034Z,24.44
2023-01-09T15:33:34.072Z,24.40
2023-01-09T15:36:02.445Z,24.42
2023-01-09T15:38:30.788Z,24.38
2023-01-09T15:41:39.036Z,24.45
2023-01-09T15:44:06.397Z,24.47
2023-01-09T15:46:33.103Z,24.49
2023-01-09T15:48:59.833Z,24.49
2023-01-09T15:51:26.521Z,24.45
2023-01-09T15:53:54.695Z,24.39
2023-01-09T15:56:24.156Z,24.50
2023-01-09T15:58:51.874Z,24.50
2023-01-09T16:01:30.627Z,24.52
2023-01-09T16:04:16.392Z,24.58
2023-01-09T16:06:50.425Z,24.55
2023-01-09T16:09:22.800Z,24.55
2023-01-09T16:11:52.699Z,24.57
2023-01-09T16:14:24.880Z,24.50
2023-01-09T16:16:52.037Z,24.57
2023-01-09T16:19:46.656Z,24.64
2023-01-09T16:22:29.945Z,24.64
2023-01-09T16:24:57.474Z,24.72
2023-01-09T16:27:28.580Z,24.66
2023-01-09T16:30:08.545Z,24.33
2023-01-09T16:32:37.230Z,24.60
2023-01-09T16:35:16.607Z,24.63
2023-01-09T16:37:43.261Z,24.34
2023-01-09T16:40:18.666Z,24.66
2023-01-09T16:43:00.647Z,24.64
2023-01-09T16:45:29.033Z,24.70
2023-01-09T16:47:57.153Z,24.69
2023-01-09T16:50:24.871Z,24.69
2023-01-09T16:52:51.888Z,24.65
2023-01-09T16:55:18.456Z,24.67
2023-01-09T16:57:45.144Z,24.64
2023-01-09T17:00:18.293Z,24.72
2023-01-09T17:02:45.298Z,24.60
2023-01-09T17:05:11.984Z,24.50
2023-01-09T17:07:38.516Z,24.21
2023-01-09T17:10:05.985Z,24.15
2023-01-09T17:12:32.625Z,24.14
2023-01-09T17:15:01.304Z,24.16
2023-01-09T17:17:27.907Z,23.97
2023-01-09T17:19:54.453Z,24.28
2023-01-09T17:22:21.119Z,24.33
2023-01-09T17:25:08.707Z,24.38
2023-01-09T17:27:55.065Z,24.18
2023-01-09T17:30:21.729Z,24.45
2023-01-09T17:32:48.588Z,24.38
2023-01-09T17:35:15.798Z,24.49
2023-01-09T17:37:42.613Z,24.51
2023-01-09T17:40:20.009Z,24.54
2023-01-09T17:42:46.783Z,24.55
2023-01-09T17:45:13.524Z,24.58
2023-01-09T17:47:40.167Z,24.58
2023-01-09T17:50:07.175Z,24.62
2023-01-09T17:52:33.826Z,24.61
2023-01-09T17:55:05.259Z,24.49
2023-01-09T17:57:32.593Z,24.60
2023-01-09T18:00:00.481Z,24.62
2023-01-09T18:02:27.265Z,24.66
2023-01-09T18:04:53.944Z,24.66
2023-01-09T18:07:20.723Z,24.53
2023-01-09T18:09:47.406Z,24.69
2023-01-09T18:12:14.142Z,24.71
2023-01-09T18:14:42.040Z,24.63
2023-01-09T18:17:09.189Z,24.68
2023-01-09T18:19:35.922Z,24.63
2023-01-09T18:22:03.797Z,24.77
2023-01-09T18:24:30.407Z,24.76
2023-01-09T18:26:57.083Z,24.80
2023-01-09T18:29:24.081Z,24.73
2023-01-09T18:31:51.749Z,24.82
2023-01-09T18:34:18.464Z,24.81
2023-01-09T18:36:45.642Z,24.79
2023-01-09T18:39:12.287Z,24.86
2023-01-09T18:41:38.923Z,24.87
2023-01-09T18:44:05.616Z,24.85
2023-01-09T18:46:32.582Z,24.79
2023-01-09T18:49:03.137Z,24.90
2023-01-09T18:51:30.171Z,24.85
2023-01-09T18:53:57.097Z,24.91
2023-01-09T18:56:24.732Z,24.69
2023-01-09T18:58:55.194Z,24.94
2023-01-09T19:01:22.529Z,24.89
2023-01-09T19:03:49.663Z,24.98
2023-01-09T19:06:16.283Z,24.97
2023-01-09T19:08:43.195Z,24.95
2023-01-09T19:11:09.888Z,24.99
2023-01-09T19:13:36.844Z,25.02
2023-01-09T19:16:04.229Z,24.95
2023-01-09T19:18:36.633Z,25.02
2023-01-09T19:21:14.585Z,24.98
2023-01-09T19:23:41.834Z,24.96
2023-01-09T19:26:08.951Z,24.96
2023-01-09T19:28:36.310Z,24.93
2023-01-09T19:31:03.083Z,24.95
2023-01-09T19:33:29.799Z,24.92
2023-01-09T19:35:56.604Z,24.91
2023-01-09T19:38:23.718Z,24.91
2023-01-09T19:40:50.518Z,24.92
2023-01-09T19:43:25.992Z,24.87
2023-01-09T19:45:55.959Z,24.92
2023-01-09T19:48:23.344Z,24.89
2023-01-09T19:50:50.073Z,24.83
2023-01-09T19:53:17.030Z,24.90
2023-01-09T19:55:43.681Z,24.92
2023-01-09T19:58:11.050Z,24.88
2023-01-09T20:00:37.723Z,24.88
2023-01-09T20:03:04.442Z,24.90
2023-01-09T20:05:31.095Z,24.84
2023-01-09T20:07:57.912Z,24.87
2023-01-09T20:10:24.555Z,24.82
2023-01-09T20:12:51.540Z,24.87
2023-01-09T20:15:18.233Z,24.86
2023-01-09T20:17:44.932Z,24.89
2023-01-09T20:20:11.788Z,24.87
2023-01-09T20:22:38.403Z,24.83
2023-01-09T20:25:07.910Z,24.91
2023-01-09T20:27:34.685Z,24.94
2023-01-09T20:30:01.257Z,24.95
2023-01-09T20:32:29.935Z,24.88
2023-01-09T20:34:57.158Z,24.77
2023-01-09T20:37:23.846Z,24.52
2023-01-09T20:39:52.923Z,24.33
2023-01-09T20:42:19.491Z,24.33
2023-01-09T20:44:46.137Z,24.34
2023-01-09T20:47:12.781Z,24.10
2023-01-09T20:49:42.324Z,24.26
2023-01-09T20:52:08.989Z,24.38
2023-01-09T20:54:41.108Z,24.37
2023-01-09T20:57:07.797Z,24.37
2023-01-09T20:59:35.103Z,24.46
2023-01-09T21:02:01.979Z,24.50
2023-01-09T21:04:31.255Z,24.50
2023-01-09T21:06:57.978Z,24.51
2023-01-09T21:09:26.071Z,24.28
2023-01-09T21:11:52.764Z,24.49
2023-01-09T21:14:20.075Z,24.45
2023-01-09T21:16:54.589Z,24.55
2023-01-09T21:19:22.315Z,24.57
2023-01-09T21:21:50.344Z,24.59
2023-01-09T21:24:18.233Z,24.60
2023-01-09T21:26:44.786Z,24.41
2023-01-09T21:29:11.884Z,24.55
2023-01-09T21:31:38.607Z,24.55
2023-01-09T21:34:06.934Z,24.59
2023-01-09T21:36:35.281Z,24.55
2023-01-09T21:39:02.205Z,24.56
2023-01-09T21:41:49.081Z,24.56
2023-01-09T21:44:34.193Z,24.58
2023-01-09T21:47:01.590Z,24.54
2023-01-09T21:49:31.154Z,24.53
2023-01-09T21:51:58.029Z,24.59
2023-01-09T21:54:24.655Z,24.55
2023-01-09T21:56:51.937Z,24.61
2023-01-09T21:59:18.787Z,24.54
2023-01-09T22:01:45.404Z,24.52
2023-01-09T22:04:13.545Z,24.56
2023-01-09T22:06:40.267Z,24.58
2023-01-09T22:09:06.865Z,24.61
2023-01-09T22:11:33.439Z,24.56
2023-01-09T22:14:00.402Z,24.52
2023-01-09T22:16:27.319Z,24.34
2023-01-09T22:18:54.993Z,24.44
2023-01-09T22:21:22.371Z,24.53
2023-01-09T22:23:49.195Z,23.56
2023-01-09T22:26:16.089Z,24.60
2023-01-09T22:28:42.999Z,24.30
